Terminal Aerodrome Forecast
Issued by NWS

Home | Current Version | Previous Version | Text Only | Print | Product List | Glossary On
Versions: 1 2 3 4 5 6 7 8 9 10 11 12
000
FTUS46 KOTX 252335
TAFCOE
TAF
KCOE 252335Z 2600/2624 03008G15KT P6SM FEW100
     FM260600 05005KT P6SM FEW070 FEW200
     FM261200 06011KT P6SM SCT100
     FM261800 05006KT P6SM SCT090 SCT200
      AMD LTD TO CLD VIS AND WIND=

USA.gov is the U.S. government's official web portal to all federal, state and local government web resources and services.